• Join FlightAware (Why Join?)
  • Login
  • US Flag 
07:40AM EST


 

Airport Tracker/Info


-or-


 

Live Flight TrackerFlight Track Log ✈ N40BZ ✈ 26-Jul-2013 ✈ KLOM - KHTO

Flight Track Log - Related Links

Times and Time Zones

All times are in EDT time to prevent confusion due to time zone crossing. See the N40BZ flight status page for this flight to view local times or setup timezone preferences in your user account.

Time Position Orientation Groundspeed Altitude Reporting Facility
EDT Latitude Longitude Course Direction KTS MPH feet Rate Location/Type
10:33AM 40.1667 -75.2000 60° Northeast 123 142 1,800  Level Philadelphia TRACON
10:34AM 40.1667 -75.1667 90° East 123 142 2,900 660 Climbing Philadelphia TRACON
10:35AM 40.1833 -75.1167 66° East 169 194 3,000  Climbing Philadelphia TRACON
10:36AM 40.1833 -75.0333 90° East 174 200 3,000  Level Philadelphia TRACON
10:38AM 40.2333 -74.9501 57° Northeast  Level FlightAware Approximate
10:43AM 40.2000 -74.6000 114° Southeast 173 199 3,100  Level New York TRACON
10:44AM 40.2000 -74.5500 90° East 166 191 3,500 540 Climbing New York TRACON
10:45AM 40.2025 -74.5174 95° East  Level FlightAware Approximate
10:45AM 40.2000 -74.5000 90° East 159 183 4,200  Level New York TRACON
10:46AM 40.1910 -74.4563 113° Southeast  Level FlightAware Approximate
10:46AM 40.1833 -74.4333 108° East 163 188 5,000  Level New York TRACON
10:47AM 40.1716 -74.3978 113° Southeast  Level FlightAware Approximate
10:47AM 40.1667 -74.3833 114° Southeast 178 205 5,000  Level New York TRACON
10:48AM 40.1521 -74.3394 114° Southeast  Level FlightAware Approximate
10:48AM 40.1500 -74.3167 108° East 187 215 5,000  Level New York TRACON
10:49AM 40.1333 -74.2500 108° East 185 213 5,000  Level New York TRACON
10:50AM 40.1000 -74.2000 131° Southeast 180 207 5,000  Level New York TRACON
10:51AM 40.1333 -74.1500 49° Northeast 177 204 5,000  Level New York TRACON
10:52AM 40.1667 -74.1167 37° Northeast 170 196 5,000  Level New York TRACON
10:53AM 40.2167 -74.0833 27° Northeast 173 199 5,000  Level New York TRACON
10:54AM 40.2500 -74.0500 37° Northeast 169 194 5,000  Level New York TRACON
10:55AM 40.3000 -74.0167 27° Northeast 169 194 5,000  Level New York TRACON
10:56AM 40.3333 -74.0000 21° North 168 193 5,000  Level New York TRACON
10:57AM 40.3667 -73.9667 37° Northeast 171 197 5,000 -240 Level New York TRACON
10:58AM 40.4167 -73.9167 37° Northeast 179 206 4,600 -420 Descending New York TRACON
10:59AM 40.4500 -73.8833 37° Northeast 182 209 4,200 -300 Descending New York TRACON
11:00AM 40.4833 -73.8333 49° Northeast 171 197 4,000 -120 Descending New York TRACON
11:01AM 40.5167 -73.8000 37° Northeast 164 189 4,000  Level New York TRACON
11:02AM 40.5500 -73.7667 37° Northeast 165 190 4,000  Level New York TRACON
11:03AM 40.5833 -73.7167 49° Northeast 166 191 4,000  Level New York TRACON
11:04AM 40.6000 -73.6667 66° East 172 198 4,000  Level New York TRACON
11:05AM 40.6167 -73.6000 72° East 170 196 4,000 -300 Level New York TRACON
11:06AM 40.6333 -73.5333 72° East 186 214 3,500 -480 Descending New York TRACON
11:07AM 40.6500 -73.4667 72° East 182 209 3,000 -300 Descending New York TRACON
11:08AM 40.6500 -73.4167 90° East 168 193 3,000  Level New York TRACON
11:09AM 40.6667 -73.3500 72° East 164 189 3,000  Level New York TRACON
11:10AM 40.6667 -73.3000 90° East 167 192 3,000  Level New York TRACON
11:11AM 40.6833 -73.2333 72° East 168 193 3,000  Level New York TRACON
11:12AM 40.7000 -73.1833 66° East 169 194 3,000  Level New York TRACON
11:13AM 40.7000 -73.1167 90° East 166 191 3,000  Level New York TRACON
11:14AM 40.7167 -73.0667 66° East 169 194 3,000  Level New York TRACON
11:15AM 40.7333 -73.0000 72° East 169 194 3,000  Level New York TRACON
11:16AM 40.7500 -72.9500 66° East 168 193 3,000  Level New York TRACON
11:17AM 40.7667 -72.8833 72° East 169 194 3,000  Level New York TRACON
11:18AM 40.7833 -72.8167 72° East 172 198 3,000  Level New York TRACON
11:19AM 40.8000 -72.7667 66° East 168 193 3,000  Level New York TRACON
11:20AM 40.8167 -72.7000 72° East 168 193 3,000  Level New York TRACON
11:21AM 40.8333 -72.6500 66° East 169 194 3,000  Level New York TRACON
11:22AM 40.8500 -72.5833 72° East 168 193 3,000  Level New York TRACON
11:24AM 40.8667 -72.4667 79° East 171 197 3,000  Level New York TRACON
11:25AM 40.8667 -72.4000 90° East 172 198 3,000  Level New York TRACON
11:27AM 40.9284 -72.2932 56° Northeast  Level FlightAware Approximate
11:34AM 40.9500 -72.2500 56° Northeast  Level FlightAware Approximate
11:35AM 40.9594 -72.2517 56° Northeast  Level Estimated